sensor_id;sensor_type;location;lat;lon;timestamp;temperature;humidity
22224;DHT22;11281;52.194;21.006;2022-08-21T00:03:34;18.70;99.90
22224;DHT22;11281;52.194;21.006;2022-08-21T00:07:56;18.70;99.90
22224;DHT22;11281;52.194;21.006;2022-08-21T00:12:19;18.60;99.90
22224;DHT22;11281;52.194;21.006;2022-08-21T00:16:41;18.60;99.90
22224;DHT22;11281;52.194;21.006;2022-08-21T00:21:03;18.60;99.90
22224;DHT22;11281;52.194;21.006;2022-08-21T00:25:26;18.50;99.90
22224;DHT22;11281;52.194;21.006;2022-08-21T00:29:48;18.50;99.90
22224;DHT22;11281;52.194;21.006;2022-08-21T00:34:10;18.40;99.90
22224;DHT22;11281;52.194;21.006;2022-08-21T00:38:33;18.30;99.90
22224;DHT22;11281;52.194;21.006;2022-08-21T00:42:55;18.20;99.90
22224;DHT22;11281;52.194;21.006;2022-08-21T00:47:18;18.10;99.90
22224;DHT22;11281;52.194;21.006;2022-08-21T00:51:49;18.00;99.90
22224;DHT22;11281;52.194;21.006;2022-08-21T00:56:12;17.90;99.90
22224;DHT22;11281;52.194;21.006;2022-08-21T01:00:37;18.00;99.90
22224;DHT22;11281;52.194;21.006;2022-08-21T01:05:00;18.10;99.90
22224;DHT22;11281;52.194;21.006;2022-08-21T01:09:22;18.00;99.90
22224;DHT22;11281;52.194;21.006;2022-08-21T01:13:44;17.90;99.90
22224;DHT22;11281;52.194;21.006;2022-08-21T01:18:10;17.90;99.90
22224;DHT22;11281;52.194;21.006;2022-08-21T01:22:33;17.80;99.90
22224;DHT22;11281;52.194;21.006;2022-08-21T01:26:54;17.70;99.90
22224;DHT22;11281;52.194;21.006;2022-08-21T01:31:17;17.60;99.90
22224;DHT22;11281;52.194;21.006;2022-08-21T01:35:41;17.50;99.90
22224;DHT22;11281;52.194;21.006;2022-08-21T01:40:04;17.50;99.90
22224;DHT22;11281;52.194;21.006;2022-08-21T01:44:27;17.40;99.90
22224;DHT22;11281;52.194;21.006;2022-08-21T01:48:49;17.30;99.90
22224;DHT22;11281;52.194;21.006;2022-08-21T01:53:11;17.30;99.90
22224;DHT22;11281;52.194;21.006;2022-08-21T01:57:33;17.20;99.90
22224;DHT22;11281;52.194;21.006;2022-08-21T02:01:55;17.20;99.90
22224;DHT22;11281;52.194;21.006;2022-08-21T02:06:17;17.10;99.90
22224;DHT22;11281;52.194;21.006;2022-08-21T02:10:39;17.10;99.90
22224;DHT22;11281;52.194;21.006;2022-08-21T02:15:03;17.00;99.90
22224;DHT22;11281;52.194;21.006;2022-08-21T02:19:26;16.90;99.90
22224;DHT22;11281;52.194;21.006;2022-08-21T02:23:47;16.80;99.90
22224;DHT22;11281;52.194;21.006;2022-08-21T02:28:12;16.80;99.90
22224;DHT22;11281;52.194;21.006;2022-08-21T02:32:34;16.80;99.90
22224;DHT22;11281;52.194;21.006;2022-08-21T02:36:56;17.00;99.90
22224;DHT22;11281;52.194;21.006;2022-08-21T02:41:20;17.10;99.90
22224;DHT22;11281;52.194;21.006;2022-08-21T02:45:43;17.30;99.90
22224;DHT22;11281;52.194;21.006;2022-08-21T02:50:07;17.30;99.90
22224;DHT22;11281;52.194;21.006;2022-08-21T02:54:29;17.20;99.90
22224;DHT22;11281;52.194;21.006;2022-08-21T02:58:52;17.20;99.90
22224;DHT22;11281;52.194;21.006;2022-08-21T03:03:14;17.20;99.90
22224;DHT22;11281;52.194;21.006;2022-08-21T03:07:37;17.20;99.90
22224;DHT22;11281;52.194;21.006;2022-08-21T03:11:59;17.20;99.90
22224;DHT22;11281;52.194;21.006;2022-08-21T03:16:20;17.10;99.90
22224;DHT22;11281;52.194;21.006;2022-08-21T03:20:42;17.10;99.90
22224;DHT22;11281;52.194;21.006;2022-08-21T03:25:07;17.00;99.90
22224;DHT22;11281;52.194;21.006;2022-08-21T03:29:29;17.10;99.90
22224;DHT22;11281;52.194;21.006;2022-08-21T03:33:51;17.00;99.90
22224;DHT22;11281;52.194;21.006;2022-08-21T03:38:16;16.90;99.90
22224;DHT22;11281;52.194;21.006;2022-08-21T03:42:38;16.90;99.90
22224;DHT22;11281;52.194;21.006;2022-08-21T03:47:00;17.00;99.90
22224;DHT22;11281;52.194;21.006;2022-08-21T03:51:21;17.10;99.90
22224;DHT22;11281;52.194;21.006;2022-08-21T03:55:49;17.30;99.90
22224;DHT22;11281;52.194;21.006;2022-08-21T04:00:13;17.40;99.90
22224;DHT22;11281;52.194;21.006;2022-08-21T04:04:36;17.60;99.90
22224;DHT22;11281;52.194;21.006;2022-08-21T04:08:58;17.70;99.90
22224;DHT22;11281;52.194;21.006;2022-08-21T04:13:20;17.80;99.90
22224;DHT22;11281;52.194;21.006;2022-08-21T04:17:42;17.90;99.90
22224;DHT22;11281;52.194;21.006;2022-08-21T04:22:04;18.10;99.90
22224;DHT22;11281;52.194;21.006;2022-08-21T04:26:26;18.20;99.90
22224;DHT22;11281;52.194;21.006;2022-08-21T04:30:48;18.30;99.90
22224;DHT22;11281;52.194;21.006;2022-08-21T04:35:13;18.30;99.90
22224;DHT22;11281;52.194;21.006;2022-08-21T04:39:37;18.40;99.90
22224;DHT22;11281;52.194;21.006;2022-08-21T04:43:58;18.40;99.90
22224;DHT22;11281;52.194;21.006;2022-08-21T04:48:21;18.50;99.90
22224;DHT22;11281;52.194;21.006;2022-08-21T04:52:46;18.70;99.90
22224;DHT22;11281;52.194;21.006;2022-08-21T04:57:09;18.70;99.90
22224;DHT22;11281;52.194;21.006;2022-08-21T05:01:34;18.80;99.90
22224;DHT22;11281;52.194;21.006;2022-08-21T05:05:57;18.80;99.90
22224;DHT22;11281;52.194;21.006;2022-08-21T05:10:19;18.90;99.90
22224;DHT22;11281;52.194;21.006;2022-08-21T05:14:41;19.00;99.90
22224;DHT22;11281;52.194;21.006;2022-08-21T05:19:05;19.00;99.90
22224;DHT22;11281;52.194;21.006;2022-08-21T05:23:27;19.10;99.90
22224;DHT22;11281;52.194;21.006;2022-08-21T05:27:49;19.20;99.90
22224;DHT22;11281;52.194;21.006;2022-08-21T05:32:13;19.30;99.90
22224;DHT22;11281;52.194;21.006;2022-08-21T05:36:35;19.50;99.90
22224;DHT22;11281;52.194;21.006;2022-08-21T05:40:57;19.70;99.90
22224;DHT22;11281;52.194;21.006;2022-08-21T05:45:19;19.80;99.90
22224;DHT22;11281;52.194;21.006;2022-08-21T05:49:41;19.90;99.90
22224;DHT22;11281;52.194;21.006;2022-08-21T05:54:03;20.00;99.90
22224;DHT22;11281;52.194;21.006;2022-08-21T05:58:24;20.10;99.90
22224;DHT22;11281;52.194;21.006;2022-08-21T06:02:46;20.10;99.90
22224;DHT22;11281;52.194;21.006;2022-08-21T06:07:08;20.20;99.90
22224;DHT22;11281;52.194;21.006;2022-08-21T06:11:31;20.30;99.90
22224;DHT22;11281;52.194;21.006;2022-08-21T06:20:31;20.60;99.90
22224;DHT22;11281;52.194;21.006;2022-08-21T06:24:53;20.90;99.90
22224;DHT22;11281;52.194;21.006;2022-08-21T06:29:15;22.50;99.90
22224;DHT22;11281;52.194;21.006;2022-08-21T06:33:41;23.10;99.90
22224;DHT22;11281;52.194;21.006;2022-08-21T06:38:03;22.60;99.90
22224;DHT22;11281;52.194;21.006;2022-08-21T06:42:25;22.00;99.90
22224;DHT22;11281;52.194;21.006;2022-08-21T06:46:49;22.50;99.90
22224;DHT22;11281;52.194;21.006;2022-08-21T06:51:10;22.70;99.90
22224;DHT22;11281;52.194;21.006;2022-08-21T06:55:32;22.90;99.90
22224;DHT22;11281;52.194;21.006;2022-08-21T06:59:54;23.00;99.90
22224;DHT22;11281;52.194;21.006;2022-08-21T07:04:16;22.70;99.90
22224;DHT22;11281;52.194;21.006;2022-08-21T07:08:38;22.70;99.90
22224;DHT22;11281;52.194;21.006;2022-08-21T07:13:00;22.70;99.90
22224;DHT22;11281;52.194;21.006;2022-08-21T07:17:22;22.90;99.90
22224;DHT22;11281;52.194;21.006;2022-08-21T07:21:44;22.60;99.90
22224;DHT22;11281;52.194;21.006;2022-08-21T07:26:06;22.80;99.90
22224;DHT22;11281;52.194;21.006;2022-08-21T07:30:28;23.10;99.90
22224;DHT22;11281;52.194;21.006;2022-08-21T07:34:50;22.90;99.90
22224;DHT22;11281;52.194;21.006;2022-08-21T07:39:12;23.10;99.90
22224;DHT22;11281;52.194;21.006;2022-08-21T07:43:37;23.00;99.90
22224;DHT22;11281;52.194;21.006;2022-08-21T07:47:58;23.00;99.90
22224;DHT22;11281;52.194;21.006;2022-08-21T07:52:20;23.00;99.90
22224;DHT22;11281;52.194;21.006;2022-08-21T07:56:42;23.20;99.90
22224;DHT22;11281;52.194;21.006;2022-08-21T08:01:05;23.30;99.90
22224;DHT22;11281;52.194;21.006;2022-08-21T08:05:29;23.40;99.90
22224;DHT22;11281;52.194;21.006;2022-08-21T08:09:51;23.40;99.90
22224;DHT22;11281;52.194;21.006;2022-08-21T08:14:13;23.40;99.90
22224;DHT22;11281;52.194;21.006;2022-08-21T08:18:36;23.20;99.90
22224;DHT22;11281;52.194;21.006;2022-08-21T08:22:58;23.50;99.90
22224;DHT22;11281;52.194;21.006;2022-08-21T08:27:20;23.80;99.90
22224;DHT22;11281;52.194;21.006;2022-08-21T08:31:42;24.00;99.90
22224;DHT22;11281;52.194;21.006;2022-08-21T08:36:04;24.00;99.90
22224;DHT22;11281;52.194;21.006;2022-08-21T08:40:35;23.80;99.90
22224;DHT22;11281;52.194;21.006;2022-08-21T08:45:04;24.00;99.90
22224;DHT22;11281;52.194;21.006;2022-08-21T08:49:37;24.20;99.90
22224;DHT22;11281;52.194;21.006;2022-08-21T08:54:09;24.20;99.90
22224;DHT22;11281;52.194;21.006;2022-08-21T08:58:37;24.50;99.90
22224;DHT22;11281;52.194;21.006;2022-08-21T09:03:02;24.60;99.90
22224;DHT22;11281;52.194;21.006;2022-08-21T09:07:41;24.80;99.90
22224;DHT22;11281;52.194;21.006;2022-08-21T09:12:28;25.10;99.90
22224;DHT22;11281;52.194;21.006;2022-08-21T09:22:03;25.00;99.90
22224;DHT22;11281;52.194;21.006;2022-08-21T09:26:52;25.00;99.90
22224;DHT22;11281;52.194;21.006;2022-08-21T09:35:52;25.20;99.90
22224;DHT22;11281;52.194;21.006;2022-08-21T09:40:29;25.10;99.90
22224;DHT22;11281;52.194;21.006;2022-08-21T09:45:09;25.20;99.90
22224;DHT22;11281;52.194;21.006;2022-08-21T09:49:38;24.80;99.90
22224;DHT22;11281;52.194;21.006;2022-08-21T09:58:33;24.80;99.90
22224;DHT22;11281;52.194;21.006;2022-08-21T10:03:19;25.20;99.90
22224;DHT22;11281;52.194;21.006;2022-08-21T10:07:42;25.30;99.90
22224;DHT22;11281;52.194;21.006;2022-08-21T10:16:31;25.10;99.90
22224;DHT22;11281;52.194;21.006;2022-08-21T10:21:26;25.30;99.90
22224;DHT22;11281;52.194;21.006;2022-08-21T10:26:08;25.50;99.90
22224;DHT22;11281;52.194;21.006;2022-08-21T10:35:21;25.70;99.90
22224;DHT22;11281;52.194;21.006;2022-08-21T10:55:16;26.50;99.90
22224;DHT22;11281;52.194;21.006;2022-08-21T10:59:57;26.60;99.90
22224;DHT22;11281;52.194;21.006;2022-08-21T11:04:30;26.90;99.90
22224;DHT22;11281;52.194;21.006;2022-08-21T11:09:02;27.00;99.90
22224;DHT22;11281;52.194;21.006;2022-08-21T11:13:55;27.10;99.90
22224;DHT22;11281;52.194;21.006;2022-08-21T11:18:31;26.20;99.90
22224;DHT22;11281;52.194;21.006;2022-08-21T11:23:08;25.80;99.90
22224;DHT22;11281;52.194;21.006;2022-08-21T11:27:49;25.70;99.90
22224;DHT22;11281;52.194;21.006;2022-08-21T11:37:10;25.70;99.90
22224;DHT22;11281;52.194;21.006;2022-08-21T11:46:58;26.30;99.90
22224;DHT22;11281;52.194;21.006;2022-08-21T11:51:44;26.60;99.90
22224;DHT22;11281;52.194;21.006;2022-08-21T11:56:31;26.70;99.90
22224;DHT22;11281;52.194;21.006;2022-08-21T12:01:19;26.90;99.90
22224;DHT22;11281;52.194;21.006;2022-08-21T12:05:52;26.30;99.90
22224;DHT22;11281;52.194;21.006;2022-08-21T12:10:32;26.20;99.90
22224;DHT22;11281;52.194;21.006;2022-08-21T12:19:43;26.20;99.90
22224;DHT22;11281;52.194;21.006;2022-08-21T12:24:16;26.10;99.90
22224;DHT22;11281;52.194;21.006;2022-08-21T12:29:16;25.90;99.90
22224;DHT22;11281;52.194;21.006;2022-08-21T12:33:56;26.10;99.90
22224;DHT22;11281;52.194;21.006;2022-08-21T12:38:26;26.30;99.90
22224;DHT22;11281;52.194;21.006;2022-08-21T12:42:52;26.10;99.90
22224;DHT22;11281;52.194;21.006;2022-08-21T12:52:01;26.30;99.90
22224;DHT22;11281;52.194;21.006;2022-08-21T12:56:31;26.70;99.90
22224;DHT22;11281;52.194;21.006;2022-08-21T13:01:19;26.60;99.90
22224;DHT22;11281;52.194;21.006;2022-08-21T13:05:59;26.50;99.90
22224;DHT22;11281;52.194;21.006;2022-08-21T13:10:29;26.00;99.90
22224;DHT22;11281;52.194;21.006;2022-08-21T13:14:56;26.30;99.90
22224;DHT22;11281;52.194;21.006;2022-08-21T13:19:20;26.50;99.90
22224;DHT22;11281;52.194;21.006;2022-08-21T13:23:41;26.50;99.90
22224;DHT22;11281;52.194;21.006;2022-08-21T13:28:11;26.50;99.90
22224;DHT22;11281;52.194;21.006;2022-08-21T13:32:40;25.90;99.90
22224;DHT22;11281;52.194;21.006;2022-08-21T13:37:07;25.30;99.90
22224;DHT22;11281;52.194;21.006;2022-08-21T13:41:32;25.70;99.90
22224;DHT22;11281;52.194;21.006;2022-08-21T13:45:56;26.10;99.90
22224;DHT22;11281;52.194;21.006;2022-08-21T13:50:20;25.90;99.90
22224;DHT22;11281;52.194;21.006;2022-08-21T13:54:51;26.10;99.90
22224;DHT22;11281;52.194;21.006;2022-08-21T13:59:27;26.00;99.90
22224;DHT22;11281;52.194;21.006;2022-08-21T14:03:57;25.90;99.90
22224;DHT22;11281;52.194;21.006;2022-08-21T14:08:41;25.50;99.90
22224;DHT22;11281;52.194;21.006;2022-08-21T14:13:05;25.70;99.90
22224;DHT22;11281;52.194;21.006;2022-08-21T14:17:37;25.90;99.90
22224;DHT22;11281;52.194;21.006;2022-08-21T14:22:00;26.00;99.90
22224;DHT22;11281;52.194;21.006;2022-08-21T14:26:22;25.90;99.90
22224;DHT22;11281;52.194;21.006;2022-08-21T14:30:44;25.90;99.90
22224;DHT22;11281;52.194;21.006;2022-08-21T14:35:07;25.80;99.90
22224;DHT22;11281;52.194;21.006;2022-08-21T14:39:29;25.80;99.90
22224;DHT22;11281;52.194;21.006;2022-08-21T14:43:52;25.70;99.90
22224;DHT22;11281;52.194;21.006;2022-08-21T14:48:14;25.80;99.90
22224;DHT22;11281;52.194;21.006;2022-08-21T14:52:37;25.70;99.90
22224;DHT22;11281;52.194;21.006;2022-08-21T14:57:02;25.60;99.90
22224;DHT22;11281;52.194;21.006;2022-08-21T15:01:26;25.40;99.90
22224;DHT22;11281;52.194;21.006;2022-08-21T15:05:48;25.50;99.90
22224;DHT22;11281;52.194;21.006;2022-08-21T15:10:11;25.50;99.90
22224;DHT22;11281;52.194;21.006;2022-08-21T15:14:36;25.60;99.90
22224;DHT22;11281;52.194;21.006;2022-08-21T15:19:01;25.40;99.90
22224;DHT22;11281;52.194;21.006;2022-08-21T15:23:23;25.40;99.90
22224;DHT22;11281;52.194;21.006;2022-08-21T15:27:44;25.20;99.90
22224;DHT22;11281;52.194;21.006;2022-08-21T15:32:24;25.20;99.90
22224;DHT22;11281;52.194;21.006;2022-08-21T15:36:48;24.90;99.90
22224;DHT22;11281;52.194;21.006;2022-08-21T15:41:11;24.70;99.90
22224;DHT22;11281;52.194;21.006;2022-08-21T15:45:33;24.80;99.90
22224;DHT22;11281;52.194;21.006;2022-08-21T15:49:55;24.80;99.90
22224;DHT22;11281;52.194;21.006;2022-08-21T15:54:16;24.70;99.90
22224;DHT22;11281;52.194;21.006;2022-08-21T15:58:38;24.60;99.90
22224;DHT22;11281;52.194;21.006;2022-08-21T16:03:03;24.50;99.90
22224;DHT22;11281;52.194;21.006;2022-08-21T16:07:27;24.40;99.90
22224;DHT22;11281;52.194;21.006;2022-08-21T16:11:49;24.30;99.90
22224;DHT22;11281;52.194;21.006;2022-08-21T16:16:18;24.30;99.90
22224;DHT22;11281;52.194;21.006;2022-08-21T16:20:41;23.90;99.90
22224;DHT22;11281;52.194;21.006;2022-08-21T16:25:04;23.80;99.90
22224;DHT22;11281;52.194;21.006;2022-08-21T16:29:32;23.70;99.90
22224;DHT22;11281;52.194;21.006;2022-08-21T16:33:56;23.60;99.90
22224;DHT22;11281;52.194;21.006;2022-08-21T16:38:18;23.60;99.90
22224;DHT22;11281;52.194;21.006;2022-08-21T16:42:42;23.50;99.90
22224;DHT22;11281;52.194;21.006;2022-08-21T16:47:04;23.40;99.90
22224;DHT22;11281;52.194;21.006;2022-08-21T16:51:26;23.20;99.90
22224;DHT22;11281;52.194;21.006;2022-08-21T16:55:49;23.00;99.90
22224;DHT22;11281;52.194;21.006;2022-08-21T17:00:12;22.80;99.90
22224;DHT22;11281;52.194;21.006;2022-08-21T17:04:34;22.60;99.90
22224;DHT22;11281;52.194;21.006;2022-08-21T17:08:57;22.40;99.90
22224;DHT22;11281;52.194;21.006;2022-08-21T17:13:19;22.20;99.90
22224;DHT22;11281;52.194;21.006;2022-08-21T17:17:41;22.10;99.90
22224;DHT22;11281;52.194;21.006;2022-08-21T17:22:04;22.00;99.90
22224;DHT22;11281;52.194;21.006;2022-08-21T17:26:25;21.80;99.90
22224;DHT22;11281;52.194;21.006;2022-08-21T17:30:48;21.70;99.90
22224;DHT22;11281;52.194;21.006;2022-08-21T17:35:11;21.40;99.90
22224;DHT22;11281;52.194;21.006;2022-08-21T17:39:33;21.30;99.90
22224;DHT22;11281;52.194;21.006;2022-08-21T17:43:56;21.10;99.90
22224;DHT22;11281;52.194;21.006;2022-08-21T17:48:19;21.00;99.90
22224;DHT22;11281;52.194;21.006;2022-08-21T17:52:41;20.70;99.90
22224;DHT22;11281;52.194;21.006;2022-08-21T17:57:04;20.50;99.90
22224;DHT22;11281;52.194;21.006;2022-08-21T18:01:28;20.40;99.90
22224;DHT22;11281;52.194;21.006;2022-08-21T18:05:53;20.30;99.90
22224;DHT22;11281;52.194;21.006;2022-08-21T18:10:17;20.00;99.90
22224;DHT22;11281;52.194;21.006;2022-08-21T18:14:39;19.90;99.90
22224;DHT22;11281;52.194;21.006;2022-08-21T18:19:03;19.80;99.90
22224;DHT22;11281;52.194;21.006;2022-08-21T18:23:29;19.70;99.90
22224;DHT22;11281;52.194;21.006;2022-08-21T18:27:51;19.60;99.90
22224;DHT22;11281;52.194;21.006;2022-08-21T18:32:22;19.50;99.90
22224;DHT22;11281;52.194;21.006;2022-08-21T18:36:45;19.40;99.90
22224;DHT22;11281;52.194;21.006;2022-08-21T18:41:06;19.40;99.90
22224;DHT22;11281;52.194;21.006;2022-08-21T18:45:28;19.20;99.90
22224;DHT22;11281;52.194;21.006;2022-08-21T18:49:50;19.20;99.90
22224;DHT22;11281;52.194;21.006;2022-08-21T18:54:13;19.10;99.90
22224;DHT22;11281;52.194;21.006;2022-08-21T18:58:35;19.00;99.90
22224;DHT22;11281;52.194;21.006;2022-08-21T19:02:57;18.90;99.90
22224;DHT22;11281;52.194;21.006;2022-08-21T19:07:19;18.90;99.90
22224;DHT22;11281;52.194;21.006;2022-08-21T19:11:42;18.80;99.90
22224;DHT22;11281;52.194;21.006;2022-08-21T19:16:04;18.80;99.90
22224;DHT22;11281;52.194;21.006;2022-08-21T19:20:29;18.70;99.90
22224;DHT22;11281;52.194;21.006;2022-08-21T19:24:54;18.70;99.90
22224;DHT22;11281;52.194;21.006;2022-08-21T19:29:18;18.60;99.90
22224;DHT22;11281;52.194;21.006;2022-08-21T19:33:44;18.50;99.90
22224;DHT22;11281;52.194;21.006;2022-08-21T19:38:08;18.50;99.90
22224;DHT22;11281;52.194;21.006;2022-08-21T19:42:30;18.50;99.90
22224;DHT22;11281;52.194;21.006;2022-08-21T19:46:53;18.40;99.90
22224;DHT22;11281;52.194;21.006;2022-08-21T19:51:18;18.30;99.90
22224;DHT22;11281;52.194;21.006;2022-08-21T19:55:43;18.30;99.90
22224;DHT22;11281;52.194;21.006;2022-08-21T20:00:07;18.20;99.90
22224;DHT22;11281;52.194;21.006;2022-08-21T20:04:31;18.10;99.90
22224;DHT22;11281;52.194;21.006;2022-08-21T20:08:53;18.10;99.90
22224;DHT22;11281;52.194;21.006;2022-08-21T20:13:16;18.00;99.90
22224;DHT22;11281;52.194;21.006;2022-08-21T20:17:41;18.00;99.90
22224;DHT22;11281;52.194;21.006;2022-08-21T20:22:03;18.00;99.90
22224;DHT22;11281;52.194;21.006;2022-08-21T20:26:26;17.90;99.90
22224;DHT22;11281;52.194;21.006;2022-08-21T20:30:48;17.80;99.90
22224;DHT22;11281;52.194;21.006;2022-08-21T20:35:09;17.90;99.90
22224;DHT22;11281;52.194;21.006;2022-08-21T20:39:31;17.80;99.90
22224;DHT22;11281;52.194;21.006;2022-08-21T20:43:54;17.70;99.90
22224;DHT22;11281;52.194;21.006;2022-08-21T20:48:26;17.60;99.90
22224;DHT22;11281;52.194;21.006;2022-08-21T20:52:52;17.60;99.90
22224;DHT22;11281;52.194;21.006;2022-08-21T20:57:55;17.60;99.90
22224;DHT22;11281;52.194;21.006;2022-08-21T21:07:15;17.50;99.90
22224;DHT22;11281;52.194;21.006;2022-08-21T21:11:55;17.50;99.90
22224;DHT22;11281;52.194;21.006;2022-08-21T21:21:04;17.30;99.90
22224;DHT22;11281;52.194;21.006;2022-08-21T21:25:36;17.30;99.90
22224;DHT22;11281;52.194;21.006;2022-08-21T21:30:11;17.30;99.90
22224;DHT22;11281;52.194;21.006;2022-08-21T21:34:39;17.20;99.90
22224;DHT22;11281;52.194;21.006;2022-08-21T21:39:24;17.20;99.90
22224;DHT22;11281;52.194;21.006;2022-08-21T22:04:41;17.20;99.90
22224;DHT22;11281;52.194;21.006;2022-08-21T22:09:53;17.20;99.90
22224;DHT22;11281;52.194;21.006;2022-08-21T22:14:38;17.10;99.90
22224;DHT22;11281;52.194;21.006;2022-08-21T22:19:14;17.10;99.90
22224;DHT22;11281;52.194;21.006;2022-08-21T22:23:47;17.10;99.90
22224;DHT22;11281;52.194;21.006;2022-08-21T22:28:17;17.10;99.90
22224;DHT22;11281;52.194;21.006;2022-08-21T22:32:41;17.10;99.90
22224;DHT22;11281;52.194;21.006;2022-08-21T22:37:09;17.10;99.90
22224;DHT22;11281;52.194;21.006;2022-08-21T22:41:37;17.20;99.90
22224;DHT22;11281;52.194;21.006;2022-08-21T22:46:08;17.20;99.90
22224;DHT22;11281;52.194;21.006;2022-08-21T22:50:31;17.20;99.90
22224;DHT22;11281;52.194;21.006;2022-08-21T22:55:01;17.20;99.90
22224;DHT22;11281;52.194;21.006;2022-08-21T23:00:01;17.10;99.90
22224;DHT22;11281;52.194;21.006;2022-08-21T23:04:31;17.10;99.90
22224;DHT22;11281;52.194;21.006;2022-08-21T23:08:53;17.00;99.90
22224;DHT22;11281;52.194;21.006;2022-08-21T23:13:17;17.00;99.90
22224;DHT22;11281;52.194;21.006;2022-08-21T23:17:55;17.10;99.90
22224;DHT22;11281;52.194;21.006;2022-08-21T23:27:14;17.00;99.90
22224;DHT22;11281;52.194;21.006;2022-08-21T23:32:09;16.90;99.90
22224;DHT22;11281;52.194;21.006;2022-08-21T23:37:15;16.80;99.90
22224;DHT22;11281;52.194;21.006;2022-08-21T23:42:32;16.70;99.90
22224;DHT22;11281;52.194;21.006;2022-08-21T23:47:13;16.70;99.90
